Time;durP1;ratioP1;P1;durP2;ratioP2;P2;SDS_P1;SDS_P2;PMS_P1;PMS_P2;Temp;Humidity;BMP_temperature;BMP_pressure;BME280_temperature;BME280_humidity;BME280_pressure;Samples;Min_cycle;Max_cycle;Signal;HPM_P1;HPM_P2
2022/03/18 00:03:27;;;;;;;;;;;;;;;21.86;29.18;96963.22;10344626;28;1808;-42
2022/03/18 00:08:27;;;;;;;;;;;;;;;21.81;29.07;96965.84;10360017;28;1911;-43
2022/03/18 00:13:28;;;;;;;;;;;;;;;21.86;29.15;96970.34;10339832;28;1907;-42
2022/03/18 00:18:28;;;;;;;;;;;;;;;21.78;29.12;96962.88;10356344;28;1792;-42
2022/03/18 00:23:28;;;;;;;;;;;;;;;21.82;29.04;96966.63;10369493;28;1951;-40
2022/03/18 00:28:29;;;;;;;;;;;;;;;21.84;29.06;96961.91;10363145;28;1977;-40
2022/03/18 00:33:29;;;;;;;;;;;;;;;21.81;29.07;96972.91;10361730;28;2245;-41
2022/03/18 00:38:31;;;;;;;;;;;;;;;21.81;29.04;96972.91;10363799;28;1920;-43
2022/03/18 00:43:32;;;;;;;;;;;;;;;21.83;28.83;96962.94;10370134;28;1978;-40
2022/03/18 00:53:52;;;;;;;;;;;;;;;21.84;28.77;96962.66;10366705;28;1961;-42
2022/03/18 00:58:52;;;;;;;;;;;;;;;21.81;28.78;96972.91;10354911;28;2012;-47
2022/03/18 01:03:53;;;;;;;;;;;;;;;21.80;28.76;96968.69;10357767;28;1902;-41
2022/03/18 01:08:53;;;;;;;;;;;;;;;21.81;28.79;96971.09;10356768;28;1855;-43
2022/03/18 01:13:54;;;;;;;;;;;;;;;21.81;28.86;96968.47;10364049;28;1820;-46
2022/03/18 01:18:55;;;;;;;;;;;;;;;21.81;28.84;96967.63;10354141;28;1837;-40
2022/03/18 01:23:56;;;;;;;;;;;;;;;21.82;28.83;96977.97;10367126;28;1972;-45
2022/03/18 01:28:58;;;;;;;;;;;;;;;21.82;28.68;96971.91;10361664;28;1930;-40
2022/03/18 01:33:58;;;;;;;;;;;;;;;21.83;28.70;96976.13;10348695;28;1963;-41
2022/03/18 01:38:59;;;;;;;;;;;;;;;21.82;28.72;96983.25;10324236;28;2269;-43
2022/03/18 01:44:00;;;;;;;;;;;;;;;21.81;28.68;96989.59;10351457;28;1953;-40
2022/03/18 01:49:00;;;;;;;;;;;;;;;21.87;28.74;96977.22;10360888;28;1932;-43
2022/03/18 01:59:27;;;;;;;;;;;;;;;21.84;28.83;96978.50;10318488;28;1847;-40
2022/03/18 02:04:30;;;;;;;;;;;;;;;21.84;29.06;96988.28;10337434;28;1910;-41
2022/03/18 02:09:31;;;;;;;;;;;;;;;21.90;28.74;96983.84;10356776;28;1874;-41
2022/03/18 02:14:32;;;;;;;;;;;;;;;21.85;28.89;96992.50;10366273;28;1929;-46
2022/03/18 02:19:33;;;;;;;;;;;;;;;21.85;28.74;96987.22;10351505;28;1895;-42
2022/03/18 02:24:35;;;;;;;;;;;;;;;21.85;28.77;96990.69;10339037;28;2033;-39
2022/03/18 02:29:35;;;;;;;;;;;;;;;21.82;28.98;96987.75;10326077;28;1934;-41
2022/03/18 02:34:37;;;;;;;;;;;;;;;21.82;28.79;96999.09;10340398;28;2003;-40
2022/03/18 02:39:37;;;;;;;;;;;;;;;21.86;28.85;96996.75;10349869;28;1959;-40
2022/03/18 02:44:38;;;;;;;;;;;;;;;21.85;28.84;97000.44;10347885;28;2126;-41
2022/03/18 02:49:38;;;;;;;;;;;;;;;21.87;28.89;96998.34;10345028;28;2295;-41
2022/03/18 02:54:39;;;;;;;;;;;;;;;21.89;28.68;96996.25;10340054;28;1824;-43
2022/03/18 02:59:41;;;;;;;;;;;;;;;21.87;28.66;97006.25;10359469;28;1901;-44
2022/03/18 03:07:59;;;;;;;;;;;;;;;21.81;28.92;96997.50;10358210;28;1953;-40
2022/03/18 03:10:02;;;;;;;;;;;;;;;21.88;28.65;96999.13;10351590;28;1904;-40
2022/03/18 03:15:03;;;;;;;;;;;;;;;21.85;28.68;97001.22;10356390;28;2035;-40
2022/03/18 03:20:03;;;;;;;;;;;;;;;21.84;28.75;96998.84;10355150;28;1916;-43
2022/03/18 03:25:04;;;;;;;;;;;;;;;21.85;28.77;97011.78;10367160;28;1902;-49
2022/03/18 03:30:05;;;;;;;;;;;;;;;21.88;28.77;97010.50;10352795;28;1907;-41
2022/03/18 03:35:06;;;;;;;;;;;;;;;21.86;28.87;97021.28;10363342;28;2006;-44
2022/03/18 03:40:06;;;;;;;;;;;;;;;21.88;28.98;97020.25;10336518;28;1868;-44
2022/03/18 03:45:07;;;;;;;;;;;;;;;21.88;28.67;97021.06;10356434;28;1910;-43
2022/03/18 03:50:08;;;;;;;;;;;;;;;21.86;28.83;97029.22;10340360;28;1837;-43
2022/03/18 03:55:09;;;;;;;;;;;;;;;21.84;28.95;97036.56;10347549;28;1879;-40
2022/03/18 04:00:10;;;;;;;;;;;;;;;21.85;28.81;97048.75;10361871;28;1834;-43
2022/03/18 04:05:10;;;;;;;;;;;;;;;21.88;28.62;97044.81;10363307;28;2287;-45
2022/03/18 04:10:11;;;;;;;;;;;;;;;21.85;28.80;97061.94;10361227;28;1842;-43
2022/03/18 04:15:12;;;;;;;;;;;;;;;21.84;28.76;97060.34;10361032;28;1860;-46
2022/03/18 04:20:13;;;;;;;;;;;;;;;21.86;28.77;97070.66;10360707;28;2015;-46
2022/03/18 04:25:13;;;;;;;;;;;;;;;21.85;28.45;97074.34;10367429;28;1965;-43
2022/03/18 04:30:13;;;;;;;;;;;;;;;21.88;28.48;97085.19;10347128;28;1856;-42
2022/03/18 04:35:14;;;;;;;;;;;;;;;21.87;28.50;97093.38;10347381;28;1875;-40
2022/03/18 04:40:14;;;;;;;;;;;;;;;21.84;28.47;97099.94;10337014;28;1866;-47
2022/03/18 04:45:16;;;;;;;;;;;;;;;21.82;28.46;97106.53;10344382;28;1973;-47
2022/03/18 04:50:17;;;;;;;;;;;;;;;21.84;28.79;97107.06;10356159;28;1787;-44
2022/03/18 04:55:17;;;;;;;;;;;;;;;21.85;28.66;97106.81;10344806;28;1812;-45
2022/03/18 05:00:20;;;;;;;;;;;;;;;21.83;28.46;97108.09;10343081;28;1640;-45
2022/03/18 05:05:20;;;;;;;;;;;;;;;21.83;28.51;97108.91;10362173;28;1918;-43
2022/03/18 05:10:22;;;;;;;;;;;;;;;21.84;28.25;97115.00;10368506;28;1551;-47
2022/03/18 05:15:23;;;;;;;;;;;;;;;21.85;28.48;97113.94;10355626;28;1821;-42
2022/03/18 05:20:24;;;;;;;;;;;;;;;21.81;28.68;97126.00;10336785;28;1892;-40
2022/03/18 05:25:25;;;;;;;;;;;;;;;21.86;28.11;97136.66;10364074;22;1910;-57
2022/03/18 05:30:25;;;;;;;;;;;;;;;21.83;28.29;97130.03;10371911;28;2288;-57
2022/03/18 05:35:25;;;;;;;;;;;;;;;21.85;28.20;97137.69;10389644;28;1847;-59
2022/03/18 05:40:25;;;;;;;;;;;;;;;21.83;28.49;97145.06;10361950;28;1821;-59
2022/03/18 05:45:26;;;;;;;;;;;;;;;21.83;28.49;97152.97;10354502;28;1918;-59
2022/03/18 05:50:26;;;;;;;;;;;;;;;21.80;28.51;97156.88;10360664;28;2055;-59
2022/03/18 05:56:52;;;;;;;;;;;;;;;21.83;28.40;97166.19;10358997;28;1871;-58
2022/03/18 06:00:47;;;;;;;;;;;;;;;21.83;28.51;97166.19;10341270;28;1894;-56
2022/03/18 06:05:47;;;;;;;;;;;;;;;21.81;28.46;97176.16;10325344;28;1917;-55
2022/03/18 06:16:07;;;;;;;;;;;;;;;21.82;28.35;97175.16;10342899;28;2057;-58
2022/03/18 06:21:07;;;;;;;;;;;;;;;21.81;28.56;97178.78;10362003;28;1912;-57
2022/03/18 06:26:07;;;;;;;;;;;;;;;21.83;28.33;97185.47;10355250;28;1910;-57
2022/03/18 06:31:09;;;;;;;;;;;;;;;21.83;28.58;97192.56;10348521;28;1857;-58
2022/03/18 06:36:10;;;;;;;;;;;;;;;21.81;28.40;97194.63;10343864;28;2030;-57
2022/03/18 06:41:11;;;;;;;;;;;;;;;21.84;28.66;97202.09;10350666;28;2034;-57
2022/03/18 06:46:11;;;;;;;;;;;;;;;21.79;28.48;97212.56;10365995;28;2081;-58
2022/03/18 06:51:11;;;;;;;;;;;;;;;21.80;28.63;97222.09;10361402;28;1813;-56
2022/03/18 06:56:14;;;;;;;;;;;;;;;21.81;28.43;97227.16;10366895;28;1930;-58
2022/03/18 07:01:15;;;;;;;;;;;;;;;21.82;28.55;97227.94;10370600;28;1970;-55
2022/03/18 07:06:15;;;;;;;;;;;;;;;21.82;29.16;97230.59;10344431;28;2054;-56
2022/03/18 07:11:15;;;;;;;;;;;;;;;21.83;29.38;97234.81;10349589;28;1912;-57
2022/03/18 07:21:35;;;;;;;;;;;;;;;21.84;29.57;97242.47;10363620;28;1860;-58
2022/03/18 07:26:35;;;;;;;;;;;;;;;20.97;28.11;97241.47;10369726;28;1961;-58
2022/03/18 07:31:36;;;;;;;;;;;;;;;20.21;28.31;97254.38;10363397;28;1913;-59
2022/03/18 07:36:36;;;;;;;;;;;;;;;19.41;28.70;97254.28;10375835;28;1852;-59
2022/03/18 07:41:36;;;;;;;;;;;;;;;19.01;29.27;97265.66;10367401;28;2061;-59
2022/03/18 07:46:37;;;;;;;;;;;;;;;19.63;29.14;97270.28;10358242;28;1971;-60
2022/03/18 07:51:37;;;;;;;;;;;;;;;20.08;28.68;97267.78;10343256;28;2097;-59
2022/03/18 07:56:37;;;;;;;;;;;;;;;20.40;28.11;97279.50;10364948;28;1853;-60
2022/03/18 08:01:39;;;;;;;;;;;;;;;20.63;27.77;97291.78;10366490;28;1984;-60
2022/03/18 08:06:40;;;;;;;;;;;;;;;20.79;28.56;97291.78;10359625;28;1983;-61
2022/03/18 08:11:40;;;;;;;;;;;;;;;20.92;28.13;97291.47;10363486;28;2222;-59
2022/03/18 08:16:41;;;;;;;;;;;;;;;21.04;27.80;97304.63;10371201;28;1829;-60
2022/03/18 08:21:41;;;;;;;;;;;;;;;21.16;27.46;97301.91;10357725;28;2042;-60
2022/03/18 08:26:42;;;;;;;;;;;;;;;21.23;27.51;97305.16;10366581;28;1918;-58
2022/03/18 08:31:42;;;;;;;;;;;;;;;21.33;27.82;97313.25;10357039;28;2008;-60
2022/03/18 08:36:42;;;;;;;;;;;;;;;21.39;27.91;97323.63;10363690;28;1862;-59
2022/03/18 08:41:43;;;;;;;;;;;;;;;21.47;27.45;97330.34;10373463;28;1830;-59
2022/03/18 08:46:44;;;;;;;;;;;;;;;21.52;27.83;97314.59;10356512;28;1958;-60
2022/03/18 08:51:44;;;;;;;;;;;;;;;21.57;27.84;97325.22;10369245;28;2132;-59
2022/03/18 08:56:45;;;;;;;;;;;;;;;21.65;28.71;97324.81;10364970;28;1776;-60
2022/03/18 09:01:45;;;;;;;;;;;;;;;21.72;28.71;97328.09;10360172;28;1784;-60
2022/03/18 09:06:47;;;;;;;;;;;;;;;21.75;28.77;97335.50;10365455;28;1959;-58
2022/03/18 09:11:48;;;;;;;;;;;;;;;21.78;28.41;97342.97;10369608;28;1811;-62
2022/03/18 09:16:49;;;;;;;;;;;;;;;21.82;28.64;97352.03;10366846;28;2116;-60
2022/03/18 09:21:49;;;;;;;;;;;;;;;21.86;28.69;97353.13;10343685;28;1836;-57
2022/03/18 09:26:50;;;;;;;;;;;;;;;21.91;28.22;97353.19;10349442;28;1904;-59
2022/03/18 09:31:50;;;;;;;;;;;;;;;21.91;28.00;97358.47;10361759;28;1814;-57
2022/03/18 09:36:52;;;;;;;;;;;;;;;21.95;28.58;97359.56;10356684;28;1841;-60
2022/03/18 09:41:53;;;;;;;;;;;;;;;22.00;28.86;97364.94;10342456;28;1834;-59
2022/03/18 09:46:54;;;;;;;;;;;;;;;22.05;29.25;97372.91;10343384;28;1914;-57
2022/03/18 09:51:55;;;;;;;;;;;;;;;22.11;29.03;97373.78;10343646;28;1790;-57
2022/03/18 09:57:00;;;;;;;;;;;;;;;22.12;29.13;97378.03;10353287;28;1808;-59
2022/03/18 10:02:20;;;;;;;;;;;;;;;22.11;29.22;97373.78;10349593;28;1960;-56
2022/03/18 10:07:21;;;;;;;;;;;;;;;22.18;29.23;97384.97;10336641;28;1936;-58
2022/03/18 10:12:28;;;;;;;;;;;;;;;22.16;28.90;97385.22;10348020;28;1844;-58
2022/03/18 10:17:40;;;;;;;;;;;;;;;22.18;28.99;97391.06;10347004;28;2010;-55
2022/03/18 10:22:40;;;;;;;;;;;;;;;22.18;28.50;97400.81;10351976;28;1878;-56
2022/03/18 10:27:41;;;;;;;;;;;;;;;22.17;28.54;97394.75;10339616;28;1949;-59
2022/03/18 10:32:45;;;;;;;;;;;;;;;22.16;27.53;97392.34;10351450;28;2142;-58
2022/03/18 10:37:46;;;;;;;;;;;;;;;22.21;28.46;97395.06;10332275;28;1849;-58
2022/03/18 10:42:56;;;;;;;;;;;;;;;22.20;28.50;97390.81;10340840;28;1974;-57
2022/03/18 10:48:15;;;;;;;;;;;;;;;22.19;28.51;97392.66;10342559;28;1993;-57
2022/03/18 10:53:18;;;;;;;;;;;;;;;22.23;28.52;97392.97;10349363;28;1795;-56
2022/03/18 10:58:19;;;;;;;;;;;;;;;22.20;28.60;97396.88;10335273;28;1908;-59
2022/03/18 11:03:19;;;;;;;;;;;;;;;22.20;28.36;97396.09;10346619;28;1454;-54
2022/03/18 11:08:23;;;;;;;;;;;;;;;22.18;28.75;97396.34;10333725;28;1982;-52
2022/03/18 11:13:24;;;;;;;;;;;;;;;22.21;28.32;97408.25;10345524;28;1942;-56
2022/03/18 11:18:25;;;;;;;;;;;;;;;22.24;28.41;97410.41;10342992;28;1859;-58
2022/03/18 11:23:26;;;;;;;;;;;;;;;22.13;27.32;97408.69;10345848;28;1909;-53
2022/03/18 11:28:26;;;;;;;;;;;;;;;22.13;27.94;97404.22;10347239;28;2126;-55
2022/03/18 11:33:27;;;;;;;;;;;;;;;22.11;27.28;97406.28;10409250;22;2394;-41
2022/03/18 11:38:30;;;;;;;;;;;;;;;22.11;27.88;97411.56;10469964;28;2234;-42
2022/03/18 11:43:34;;;;;;;;;;;;;;;22.02;26.95;97413.03;10478928;28;1645;-41
2022/03/18 11:48:37;;;;;;;;;;;;;;;22.03;27.45;97411.97;10479742;28;1913;-41
2022/03/18 11:53:45;;;;;;;;;;;;;;;22.05;27.34;97409.88;10481861;28;2119;-42
2022/03/18 11:58:47;;;;;;;;;;;;;;;22.04;27.55;97399.56;10498633;28;1883;-40
2022/03/18 12:03:49;;;;;;;;;;;;;;;22.02;27.49;97397.19;10481256;28;1936;-42
2022/03/18 12:08:50;;;;;;;;;;;;;;;22.01;26.63;97400.84;10461336;28;1977;-43
2022/03/18 12:13:51;;;;;;;;;;;;;;;22.01;27.32;97398.22;10484792;28;1884;-41
2022/03/18 12:18:55;;;;;;;;;;;;;;;22.02;27.69;97407.75;10473747;28;1883;-40
2022/03/18 12:24:03;;;;;;;;;;;;;;;22.03;27.80;97409.31;10467751;28;1853;-42
2022/03/18 12:29:04;;;;;;;;;;;;;;;22.03;27.78;97395.34;10479094;28;1884;-43
2022/03/18 12:34:08;;;;;;;;;;;;;;;22.03;28.08;97398.00;10467440;28;1853;-42
2022/03/18 12:39:14;;;;;;;;;;;;;;;22.06;28.05;97395.66;10481765;28;1747;-42
2022/03/18 12:44:29;;;;;;;;;;;;;;;22.07;28.19;97391.94;10484144;28;1898;-45
2022/03/18 12:49:36;;;;;;;;;;;;;;;22.04;27.79;97392.44;10481709;28;1941;-44
2022/03/18 12:54:37;;;;;;;;;;;;;;;22.03;28.21;97396.13;10481398;28;1817;-40
2022/03/18 12:59:38;;;;;;;;;;;;;;;22.07;28.00;97399.09;10478479;28;1874;-43
2022/03/18 13:04:39;;;;;;;;;;;;;;;22.06;27.97;97392.19;10482841;28;1945;-41
2022/03/18 13:09:48;;;;;;;;;;;;;;;22.07;28.16;97388.53;10476496;28;1811;-41
2022/03/18 13:14:53;;;;;;;;;;;;;;;22.09;28.16;97395.16;10469115;28;1837;-44
2022/03/18 13:19:56;;;;;;;;;;;;;;;22.06;28.05;97387.72;10476383;28;1776;-42
2022/03/18 13:24:59;;;;;;;;;;;;;;;22.11;28.18;97390.44;10479704;28;1937;-42
2022/03/18 13:35:20;;;;;;;;;;;;;;;22.09;28.10;97389.09;10473980;28;1817;-41
2022/03/18 13:40:21;;;;;;;;;;;;;;;22.14;28.11;97394.41;10475438;28;1830;-45
2022/03/18 13:45:23;;;;;;;;;;;;;;;22.14;28.16;97392.59;10475587;28;1985;-40
2022/03/18 13:50:25;;;;;;;;;;;;;;;22.19;27.94;97390.03;10476315;28;1845;-42
2022/03/18 13:55:32;;;;;;;;;;;;;;;22.17;27.95;97389.47;10492637;28;2105;-49
2022/03/18 14:00:34;;;;;;;;;;;;;;;22.15;28.14;97391.56;10469319;28;1859;-43
2022/03/18 14:05:35;;;;;;;;;;;;;;;22.18;27.99;97390.25;10468115;28;1933;-44
2022/03/18 14:10:42;;;;;;;;;;;;;;;22.18;28.02;97391.06;10464634;28;1809;-42
2022/03/18 14:15:49;;;;;;;;;;;;;;;22.15;28.02;97386.28;10465017;28;1860;-44
2022/03/18 14:20:50;;;;;;;;;;;;;;;22.17;27.96;97388.66;10472135;28;1814;-42
2022/03/18 14:25:54;;;;;;;;;;;;;;;22.18;28.09;97391.06;10475275;28;1973;-41
2022/03/18 14:30:56;;;;;;;;;;;;;;;22.21;28.07;97395.06;10476746;28;1870;-42
2022/03/18 14:35:56;;;;;;;;;;;;;;;22.19;28.08;97386.56;10474524;28;1713;-42
2022/03/18 14:41:01;;;;;;;;;;;;;;;22.22;27.72;97389.53;10479187;28;1815;-45
2022/03/18 14:46:02;;;;;;;;;;;;;;;22.19;28.00;97382.09;10479022;28;1914;-43
2022/03/18 14:51:02;;;;;;;;;;;;;;;22.19;27.91;97387.38;10476236;28;1830;-42
2022/03/18 14:56:26;;;;;;;;;;;;;;;22.19;27.91;97391.88;10480746;28;1986;-44
2022/03/18 15:01:26;;;;;;;;;;;;;;;22.17;27.96;97383.38;10480520;28;1902;-44
2022/03/18 15:06:27;;;;;;;;;;;;;;;22.18;27.74;97380.50;10473337;28;1979;-42
2022/03/18 15:11:28;;;;;;;;;;;;;;;22.17;27.95;97384.19;10479289;28;1866;-42
2022/03/18 15:16:29;;;;;;;;;;;;;;;22.15;27.89;97378.34;10464691;28;1937;-45
2022/03/18 15:21:30;;;;;;;;;;;;;;;22.13;28.02;97387.56;10476521;28;2053;-43
2022/03/18 15:26:37;;;;;;;;;;;;;;;22.12;27.79;97389.41;10483803;28;1883;-44
2022/03/18 15:31:38;;;;;;;;;;;;;;;22.13;27.67;97396.28;10473385;28;1832;-44
2022/03/18 15:36:39;;;;;;;;;;;;;;;22.09;27.79;97399.66;10501546;28;1994;-43
2022/03/18 15:41:40;;;;;;;;;;;;;;;22.10;27.75;97398.59;10483330;28;1859;-43
2022/03/18 15:46:40;;;;;;;;;;;;;;;22.08;27.85;97412.06;10486437;28;1961;-46
2022/03/18 15:51:41;;;;;;;;;;;;;;;22.06;27.91;97415.97;10486222;28;1821;-44
2022/03/18 15:56:42;;;;;;;;;;;;;;;22.07;27.72;97415.72;10487282;28;1780;-43
2022/03/18 16:01:42;;;;;;;;;;;;;;;22.04;27.97;97413.56;10479427;28;1852;-48
2022/03/18 16:06:43;;;;;;;;;;;;;;;22.00;27.80;97412.47;10477605;28;1971;-43
2022/03/18 16:11:43;;;;;;;;;;;;;;;22.03;27.80;97413.81;10480358;28;1874;-46
2022/03/18 16:16:43;;;;;;;;;;;;;;;21.99;27.93;97408.22;10478551;28;2167;-42
2022/03/18 16:21:44;;;;;;;;;;;;;;;21.96;27.98;97418.47;10480506;28;1835;-40
2022/03/18 16:27:01;;;;;;;;;;;;;;;21.94;27.84;97420.56;10480738;28;2227;-41
2022/03/18 16:32:03;;;;;;;;;;;;;;;21.92;28.05;97428.72;10482218;28;2039;-42
2022/03/18 16:37:03;;;;;;;;;;;;;;;21.91;28.03;97432.38;10476486;28;1833;-45
2022/03/18 16:42:03;;;;;;;;;;;;;;;21.92;28.05;97433.19;10475161;28;1904;-47
2022/03/18 16:52:23;;;;;;;;;;;;;;;21.88;27.89;97446.09;10478153;28;1922;-44
2022/03/18 16:57:23;;;;;;;;;;;;;;;21.87;28.18;97447.13;10481665;28;1817;-42
2022/03/18 17:02:23;;;;;;;;;;;;;;;21.87;27.76;97452.41;10477544;28;1825;-41
2022/03/18 17:07:24;;;;;;;;;;;;;;;21.85;27.87;97454.47;10479200;28;1975;-40
2022/03/18 17:12:24;;;;;;;;;;;;;;;21.89;27.77;97463.50;10474526;28;2025;-41
2022/03/18 17:17:28;;;;;;;;;;;;;;;21.88;27.97;97469.03;10480948;28;1968;-42
2022/03/18 17:22:29;;;;;;;;;;;;;;;21.90;27.92;97469.59;10468110;28;2011;-43
2022/03/18 17:27:31;;;;;;;;;;;;;;;21.94;28.02;97483.91;10474490;28;2956;-42
2022/03/18 17:32:32;;;;;;;;;;;;;;;21.94;28.04;97490.00;10476112;28;1896;-43
2022/03/18 17:37:32;;;;;;;;;;;;;;;21.89;27.84;97500.47;10483820;22;2387;-55
2022/03/18 17:42:33;;;;;;;;;;;;;;;21.92;27.90;97509.75;10452855;28;2422;-56
2022/03/18 17:47:34;;;;;;;;;;;;;;;21.92;27.83;97507.13;10457572;28;1994;-57
2022/03/18 17:52:34;;;;;;;;;;;;;;;21.94;28.00;97523.53;10431890;28;1775;-54
2022/03/18 17:57:35;;;;;;;;;;;;;;;21.96;28.03;97532.00;10426635;28;1809;-53
2022/03/18 18:02:35;;;;;;;;;;;;;;;21.99;28.61;97527.03;10424725;28;1834;-55
2022/03/18 18:07:36;;;;;;;;;;;;;;;22.00;28.88;97531.28;10396325;28;2470;-55
2022/03/18 18:12:37;;;;;;;;;;;;;;;22.01;29.31;97538.16;10408502;28;2371;-52
2022/03/18 18:17:39;;;;;;;;;;;;;;;22.02;29.88;97534.50;10400587;28;2398;-55
2022/03/18 18:22:39;;;;;;;;;;;;;;;22.03;30.20;97541.34;10414026;28;2399;-55
2022/03/18 18:27:40;;;;;;;;;;;;;;;22.01;30.21;97546.09;10417673;28;1949;-56
2022/03/18 18:32:40;;;;;;;;;;;;;;;22.02;30.16;97545.06;10438845;28;1880;-54
2022/03/18 18:37:42;;;;;;;;;;;;;;;22.01;30.33;97543.44;10436927;28;1855;-54
2022/03/18 18:42:42;;;;;;;;;;;;;;;22.03;30.42;97540.59;10444099;28;1837;-55
2022/03/18 18:47:43;;;;;;;;;;;;;;;22.04;31.12;97544.81;10438380;28;1931;-56
2022/03/18 18:52:44;;;;;;;;;;;;;;;22.08;31.40;97559.94;10398656;28;2147;-57
2022/03/18 18:57:44;;;;;;;;;;;;;;;22.07;31.46;97552.25;10425458;28;2194;-53
2022/03/18 19:02:45;;;;;;;;;;;;;;;22.04;31.47;97558.81;10409556;28;2312;-56
2022/03/18 19:07:46;;;;;;;;;;;;;;;22.01;31.67;97564.56;10438489;28;2526;-53
2022/03/18 19:12:48;;;;;;;;;;;;;;;22.03;31.32;97567.00;10423419;28;2167;-50
2022/03/18 19:17:49;;;;;;;;;;;;;;;21.99;31.48;97566.66;10438390;28;1775;-56
2022/03/18 19:22:49;;;;;;;;;;;;;;;21.99;31.26;97577.22;10413188;28;1942;-53
2022/03/18 19:27:49;;;;;;;;;;;;;;;21.94;31.44;97585.06;10416478;28;2212;-50
2022/03/18 19:32:50;;;;;;;;;;;;;;;21.91;31.37;97585.53;10432164;28;1651;-54
2022/03/18 19:37:53;;;;;;;;;;;;;;;21.90;31.17;97586.56;10449880;28;1639;-54
2022/03/18 19:42:53;;;;;;;;;;;;;;;21.84;31.14;97596.22;10447854;28;1897;-55
2022/03/18 19:47:53;;;;;;;;;;;;;;;21.84;31.40;97593.59;10454416;28;1938;-55
2022/03/18 19:52:54;;;;;;;;;;;;;;;21.81;31.46;97598.50;10428895;28;1906;-55
2022/03/18 20:03:14;;;;;;;;;;;;;;;21.89;31.68;97608.72;10440570;28;1800;-53
2022/03/18 20:08:14;;;;;;;;;;;;;;;21.86;31.59;97611.84;10450462;28;1923;-54
2022/03/18 20:13:16;;;;;;;;;;;;;;;21.92;31.50;97610.91;10434711;28;1811;-53
2022/03/18 20:18:16;;;;;;;;;;;;;;;21.93;31.55;97607.22;10431934;28;1768;-54
2022/03/18 20:23:17;;;;;;;;;;;;;;;21.95;31.43;97610.41;10428365;28;1841;-53
2022/03/18 20:28:17;;;;;;;;;;;;;;;21.99;30.79;97613.41;10425456;28;1926;-55
2022/03/18 20:33:17;;;;;;;;;;;;;;;21.96;30.73;97609.38;10424735;28;1827;-56
2022/03/18 20:38:18;;;;;;;;;;;;;;;22.05;30.58;97618.50;10433325;28;1801;-54
2022/03/18 20:43:18;;;;;;;;;;;;;;;21.98;30.45;97617.06;10434776;28;1887;-54
2022/03/18 20:48:18;;;;;;;;;;;;;;;21.98;30.67;97623.16;10428996;28;1961;-55
2022/03/18 20:53:19;;;;;;;;;;;;;;;21.99;30.66;97624.75;10424243;28;1891;-57
2022/03/18 20:58:19;;;;;;;;;;;;;;;21.97;30.46;97628.69;10431901;28;1844;-56
2022/03/18 21:03:21;;;;;;;;;;;;;;;22.03;30.78;97636.44;10444417;28;1554;-56
2022/03/18 21:08:24;;;;;;;;;;;;;;;22.05;30.86;97642.28;10444555;28;1965;-56
2022/03/18 21:13:24;;;;;;;;;;;;;;;22.05;30.21;97639.63;10431622;28;2037;-56
2022/03/18 21:18:25;;;;;;;;;;;;;;;22.10;30.47;97639.75;10422249;28;1839;-56
2022/03/18 21:23:28;;;;;;;;;;;;;;;22.03;30.19;97647.00;10417162;28;2025;-56
2022/03/18 21:33:48;;;;;;;;;;;;;;;22.14;30.93;97653.25;10436298;28;1561;-56
2022/03/18 21:38:49;;;;;;;;;;;;;;;22.10;30.54;97650.31;10437523;28;1914;-53
2022/03/18 21:43:49;;;;;;;;;;;;;;;22.09;31.13;97656.59;10421924;28;1907;-53
2022/03/18 21:48:51;;;;;;;;;;;;;;;22.15;31.12;97655.69;10437625;28;1975;-57
2022/03/18 21:53:51;;;;;;;;;;;;;;;22.13;30.95;97657.75;10413453;28;1827;-56
2022/03/18 21:58:51;;;;;;;;;;;;;;;22.15;31.23;97655.69;10443404;28;1839;-54
2022/03/18 22:03:52;;;;;;;;;;;;;;;22.10;30.87;97657.41;10423906;28;1875;-55
2022/03/18 22:08:53;;;;;;;;;;;;;;;22.12;30.68;97648.22;10440679;28;1906;-55
2022/03/18 22:13:54;;;;;;;;;;;;;;;22.10;31.23;97646.84;10445581;28;1527;-56
2022/03/18 22:18:54;;;;;;;;;;;;;;;22.15;30.97;97639.03;10439134;28;1822;-53
2022/03/18 22:23:55;;;;;;;;;;;;;;;22.13;30.57;97634.00;10437400;28;1852;-54
2022/03/18 22:28:55;;;;;;;;;;;;;;;22.15;30.38;97633.75;10430758;28;1956;-56
2022/03/18 22:33:56;;;;;;;;;;;;;;;22.08;30.22;97639.16;10434641;28;1864;-55
2022/03/18 22:38:57;;;;;;;;;;;;;;;22.04;30.05;97629.31;10430025;28;1920;-55
2022/03/18 22:43:58;;;;;;;;;;;;;;;22.06;29.70;97635.16;10406222;28;2200;-54
2022/03/18 22:48:58;;;;;;;;;;;;;;;22.06;29.67;97624.59;10423458;28;1890;-54
2022/03/18 22:53:59;;;;;;;;;;;;;;;22.00;29.59;97626.34;10412902;28;1821;-51
2022/03/18 22:58:59;;;;;;;;;;;;;;;21.95;29.91;97622.84;10428324;28;1885;-56
2022/03/18 23:03:59;;;;;;;;;;;;;;;22.03;30.59;97617.16;10423934;28;1887;-57
2022/03/18 23:09:00;;;;;;;;;;;;;;;22.01;30.85;97617.38;10439062;28;1964;-54
2022/03/18 23:14:00;;;;;;;;;;;;;;;21.99;30.79;97610.75;10437531;28;2107;-55
2022/03/18 23:19:01;;;;;;;;;;;;;;;21.98;30.87;97617.88;10437215;28;1911;-57
2022/03/18 23:24:03;;;;;;;;;;;;;;;21.98;31.07;97617.06;10437229;28;1967;-55
2022/03/18 23:29:04;;;;;;;;;;;;;;;21.99;30.94;97614.19;10415818;28;1992;-56
2022/03/18 23:34:04;;;;;;;;;;;;;;;21.95;30.80;97613.06;10440550;28;1876;-56
2022/03/18 23:39:04;;;;;;;;;;;;;;;21.94;30.48;97613.28;10423135;23;2302;-53
2022/03/18 23:44:05;;;;;;;;;;;;;;;21.91;30.69;97608.50;10439972;28;1918;-55
2022/03/18 23:49:05;;;;;;;;;;;;;;;21.87;30.48;97616.06;10418031;28;1910;-52
2022/03/18 23:54:07;;;;;;;;;;;;;;;21.86;30.52;97611.84;10436373;28;1881;-51
2022/03/18 23:59:07;;;;;;;;;;;;;;;21.85;30.36;97611.03;10434647;28;2001;-53
